Terminal Aerodrome Forecast
Issued by NWS Buffalo, NY

Current Version | Previous Version | Text Only | Print | Product List | Glossary On
Versions: 1 2 3 4 5 6 7 8 9 10 11 12 13 14 15 16 17 18 19 20 21 22 23
000
FTUS41 KBUF 260242 AAA
TAFBUF
TAF AMD
KBUF 260242Z 2603/2624 19006KT P6SM SCT200
     FM261100 15005KT P6SM SCT060 BKN200
     FM261600 21008KT P6SM VCSH BKN050 BKN100
     FM262000 23008KT P6SM BKN060 OVC100=

USA.gov is the U.S. government's official web portal to all federal, state and local government web resources and services.